Time;durP1;ratioP1;P1;durP2;ratioP2;P2;SDS_P1;SDS_P2;PMS_P1;PMS_P2;Temp;Humidity;BMP_temperature;BMP_pressure;BME280_temperature;BME280_humidity;BME280_pressure;Samples;Min_cycle;Max_cycle;Signal;HPM_P1;HPM_P2
2024/02/04 00:02:07;;;;;;;35.70;20.57;;;6.00;99.90;;;;;;4436934;28;658187;-78
2024/02/04 00:04:54;;;;;;;30.40;19.00;;;6.00;99.90;;;;;;4411606;28;658000;-78
2024/02/04 00:07:41;;;;;;;12.80;7.50;;;6.00;99.90;;;;;;4416725;28;657483;-77
2024/02/04 00:10:30;;;;;;;30.83;19.63;;;6.00;99.90;;;;;;4412055;28;656677;-78
2024/02/04 00:13:17;;;;;;;31.23;19.17;;;6.00;99.90;;;;;;4430693;28;656862;-78
2024/02/04 00:16:05;;;;;;;34.67;18.10;;;6.00;99.90;;;;;;4426979;28;658255;-78
2024/02/04 00:18:53;;;;;;;31.57;18.80;;;6.10;99.90;;;;;;4414469;28;657716;-77
2024/02/04 00:21:40;;;;;;;33.77;21.83;;;6.10;99.90;;;;;;4445150;28;658653;-78
2024/02/04 00:24:27;;;;;;;27.33;16.13;;;6.00;99.90;;;;;;4418153;28;658433;-75
2024/02/04 00:27:16;;;;;;;22.00;13.77;;;6.00;99.90;;;;;;4435553;28;658111;-75
2024/02/04 00:30:04;;;;;;;30.50;16.80;;;6.00;99.90;;;;;;4419514;28;657759;-77
2024/02/04 00:32:51;;;;;;;26.10;16.10;;;6.00;99.90;;;;;;4443160;28;657866;-76
2024/02/04 00:35:38;;;;;;;23.60;13.47;;;6.00;99.90;;;;;;4415975;28;657463;-76
2024/02/04 00:38:25;;;;;;;28.60;15.60;;;6.00;99.90;;;;;;4441104;28;658141;-75
2024/02/04 00:41:12;;;;;;;30.80;17.40;;;6.00;99.90;;;;;;4414702;28;657950;-76
2024/02/04 00:44:01;;;;;;;33.13;23.73;;;6.00;99.90;;;;;;4438675;28;658182;-75
2024/02/04 00:46:48;;;;;;;33.00;18.70;;;6.00;99.90;;;;;;4416914;28;658356;-76
2024/02/04 00:49:35;;;;;;;27.40;15.43;;;6.00;99.90;;;;;;4423221;28;658056;-75
2024/02/04 00:52:23;;;;;;;27.90;16.80;;;6.00;99.90;;;;;;4405995;28;657828;-75
2024/02/04 00:55:10;;;;;;;25.33;15.73;;;6.00;99.90;;;;;;4440628;28;658171;-76
2024/02/04 00:58:00;;;;;;;24.10;9.43;;;6.00;99.90;;;;;;4421686;28;658224;-75
2024/02/04 01:00:49;;;;;;;23.60;14.27;;;6.00;99.90;;;;;;4446353;28;656588;-75
2024/02/04 01:03:36;;;;;;;23.58;13.60;;;6.00;99.90;;;;;;4442416;28;657610;-74
2024/02/04 01:06:23;;;;;;;26.83;17.83;;;6.00;99.90;;;;;;4424491;28;657498;-75
2024/02/04 01:09:10;;;;;;;18.00;11.53;;;5.90;99.90;;;;;;4433017;28;657738;-75
2024/02/04 01:11:58;;;;;;;17.53;9.03;;;5.90;99.90;;;;;;4408346;28;658227;-75
2024/02/04 01:14:45;;;;;;;26.90;17.87;;;6.00;99.90;;;;;;4446928;28;656920;-75
2024/02/04 01:17:34;;;;;;;27.23;17.53;;;5.90;99.90;;;;;;4424591;28;657315;-78
2024/02/04 01:20:21;;;;;;;27.00;16.43;;;5.90;99.90;;;;;;4440467;28;657425;-76
2024/02/04 01:23:09;;;;;;;24.40;16.67;;;5.90;99.90;;;;;;4394261;28;657367;-76
2024/02/04 01:25:56;;;;;;;22.93;15.20;;;5.90;99.90;;;;;;4445997;28;658158;-76
2024/02/04 01:28:43;;;;;;;26.97;16.23;;;5.90;99.90;;;;;;4409994;28;657705;-76
2024/02/04 01:31:30;;;;;;;29.83;17.50;;;5.90;99.90;;;;;;4437129;28;657921;-77
2024/02/04 01:34:19;;;;;;;32.73;18.00;;;5.90;99.90;;;;;;4421072;28;658132;-77
2024/02/04 01:37:06;;;;;;;27.98;16.13;;;5.90;99.90;;;;;;4430225;28;657469;-77
2024/02/04 01:39:53;;;;;;;27.07;16.73;;;5.90;99.90;;;;;;4399683;28;657248;-76
2024/02/04 01:42:40;;;;;;;26.13;15.50;;;5.90;99.90;;;;;;4432919;28;658369;-76
2024/02/04 01:45:28;;;;;;;27.57;17.20;;;5.90;99.90;;;;;;4425172;28;658163;-76
2024/02/04 01:48:15;;;;;;;26.00;15.60;;;5.90;99.90;;;;;;4437452;28;657947;-76
2024/02/04 01:51:04;;;;;;;23.27;14.97;;;5.90;99.90;;;;;;4399894;28;658019;-76
2024/02/04 01:53:51;;;;;;;23.77;17.00;;;5.90;99.90;;;;;;4430005;28;656983;-76
2024/02/04 01:56:38;;;;;;;25.90;18.75;;;5.90;99.90;;;;;;4417271;28;657809;-76
2024/02/04 01:59:28;;;;;;;18.97;10.83;;;5.80;99.90;;;;;;4436492;28;658294;-76
2024/02/04 02:02:15;;;;;;;28.80;21.93;;;5.90;99.90;;;;;;4409816;28;657689;-76
2024/02/04 02:05:02;;;;;;;29.35;19.20;;;5.80;99.90;;;;;;4406002;28;657804;-76
2024/02/04 02:07:52;;;;;;;23.27;14.87;;;5.80;99.90;;;;;;4429275;28;658184;-75
2024/02/04 02:10:42;;;;;;;13.70;6.57;;;5.90;99.90;;;;;;4412617;28;657942;-75
2024/02/04 02:13:30;;;;;;;27.73;19.27;;;5.90;99.90;;;;;;4418088;28;656770;-75
2024/02/04 02:16:19;;;;;;;20.80;14.00;;;5.80;99.90;;;;;;4427486;28;658025;-76
2024/02/04 02:19:27;;;;;;;18.67;10.77;;;5.90;99.90;;;;;;4440097;28;657454;-76
2024/02/04 02:22:22;;;;;;;17.23;12.53;;;5.90;99.90;;;;;;4374627;28;658282;-76
2024/02/04 02:25:10;;;;;;;23.17;15.90;;;5.90;99.90;;;;;;4392124;28;657280;-75
2024/02/04 02:27:57;;;;;;;22.77;13.57;;;5.90;99.90;;;;;;4405878;28;658099;-75
2024/02/04 02:30:45;;;;;;;24.13;16.97;;;5.90;99.90;;;;;;4425898;28;657987;-75
2024/02/04 02:33:33;;;;;;;22.87;15.63;;;5.90;99.90;;;;;;4435220;28;657511;-75
2024/02/04 02:36:22;;;;;;;24.13;17.50;;;5.90;99.90;;;;;;4434685;28;658558;-74
2024/02/04 02:39:11;;;;;;;21.17;11.57;;;5.90;99.90;;;;;;4408225;28;658990;-75
2024/02/04 02:42:01;;;;;;;15.40;10.77;;;5.90;99.90;;;;;;4419586;28;658086;-76
2024/02/04 02:44:48;;;;;;;9.10;5.97;;;5.90;99.90;;;;;;4401251;28;657917;-76
2024/02/04 02:47:35;;;;;;;13.03;8.73;;;5.90;99.90;;;;;;4434858;28;655851;-76
2024/02/04 02:50:22;;;;;;;10.97;7.17;;;5.90;99.90;;;;;;4428223;28;656529;-76
2024/02/04 02:53:10;;;;;;;12.93;7.00;;;5.90;99.90;;;;;;4443625;28;658083;-77
2024/02/04 02:55:57;;;;;;;6.87;4.90;;;5.90;99.90;;;;;;4453606;28;656635;-76
2024/02/04 02:58:46;;;;;;;9.52;5.90;;;5.80;99.90;;;;;;4438718;28;656428;-77
2024/02/04 03:01:33;;;;;;;10.00;5.67;;;5.80;99.90;;;;;;4431170;28;655669;-77
2024/02/04 03:04:20;;;;;;;7.93;5.10;;;5.80;99.90;;;;;;4437195;28;656960;-77
2024/02/04 03:07:07;;;;;;;6.97;4.83;;;5.90;99.90;;;;;;4423083;28;655590;-76
2024/02/04 03:09:55;;;;;;;4.53;3.10;;;5.80;99.90;;;;;;4445023;28;656819;-76
2024/02/04 03:12:42;;;;;;;5.40;3.05;;;5.80;99.90;;;;;;4421837;28;655386;-77
2024/02/04 03:15:31;;;;;;;2.47;1.60;;;5.80;99.90;;;;;;4442578;28;655686;-77
2024/02/04 03:18:18;;;;;;;4.70;2.37;;;5.70;99.90;;;;;;4409272;28;655235;-77
2024/02/04 03:21:12;;;;;;;3.20;1.90;;;5.70;99.90;;;;;;4447215;28;655799;-77
2024/02/04 03:23:59;;;;;;;4.73;2.00;;;5.70;99.90;;;;;;4420503;28;655486;-77
2024/02/04 03:26:46;;;;;;;6.90;1.47;;;5.70;99.90;;;;;;4441397;28;655896;-77
2024/02/04 03:29:33;;;;;;;3.17;1.37;;;5.60;99.90;;;;;;4425220;28;655444;-77
2024/02/04 03:32:22;;;;;;;3.10;1.57;;;5.60;99.90;;;;;;4442709;28;655860;-78
2024/02/04 03:35:09;;;;;;;4.10;1.73;;;5.70;99.90;;;;;;4418031;28;655348;-77
2024/02/04 03:37:56;;;;;;;6.30;1.90;;;5.70;99.90;;;;;;4441908;28;655515;-77
2024/02/04 03:40:44;;;;;;;4.10;2.87;;;5.60;99.90;;;;;;4421602;28;655272;-77
2024/02/04 03:43:31;;;;;;;5.37;3.07;;;5.50;99.90;;;;;;4424575;28;655347;-77
2024/02/04 03:46:18;;;;;;;7.00;3.20;;;5.50;99.90;;;;;;4404031;28;655203;-78
2024/02/04 03:49:07;;;;;;;7.37;3.80;;;5.50;99.90;;;;;;4418153;28;655907;-77
2024/02/04 03:51:55;;;;;;;6.80;3.40;;;5.50;99.90;;;;;;4405824;28;655678;-78
2024/02/04 03:54:43;;;;;;;5.43;3.28;;;5.40;99.90;;;;;;4404399;28;655634;-78
2024/02/04 03:57:30;;;;;;;6.13;3.50;;;5.50;99.90;;;;;;4425715;28;656760;-78
2024/02/04 04:00:18;;;;;;;8.47;3.17;;;5.40;99.90;;;;;;4417780;28;655460;-78
2024/02/04 04:03:05;;;;;;;7.20;3.70;;;5.40;99.90;;;;;;4429622;28;655943;-78
2024/02/04 04:05:54;;;;;;;7.33;3.50;;;5.50;99.90;;;;;;4406199;28;655782;-77
2024/02/04 04:08:41;;;;;;;5.60;3.07;;;5.40;99.90;;;;;;4427605;28;654962;-78
2024/02/04 04:11:28;;;;;;;5.77;3.30;;;5.50;99.90;;;;;;4388699;28;655292;-78
2024/02/04 04:14:15;;;;;;;5.80;3.10;;;5.50;99.90;;;;;;4402588;28;656221;-78
2024/02/04 04:17:03;;;;;;;3.70;2.70;;;5.50;99.90;;;;;;4397515;28;655835;-78
2024/02/04 04:19:50;;;;;;;4.17;2.40;;;5.50;99.90;;;;;;4417762;28;656718;-79
2024/02/04 04:22:41;;;;;;;4.70;2.70;;;5.50;99.90;;;;;;4420470;28;656023;-78
2024/02/04 04:25:28;;;;;;;4.80;2.83;;;5.50;99.90;;;;;;4379781;28;655208;-78
2024/02/04 04:28:15;;;;;;;4.15;2.45;;;5.60;99.90;;;;;;4419867;28;655915;-81
2024/02/04 04:31:03;;;;;;;4.23;2.50;;;5.60;99.90;;;;;;4392068;28;655475;-78
2024/02/04 04:33:52;;;;;;;5.00;1.97;;;5.60;99.90;;;;;;4428080;28;656544;-78
2024/02/04 04:36:39;;;;;;;6.27;2.87;;;5.60;99.90;;;;;;4405056;28;656814;-79
2024/02/04 04:39:28;;;;;;;6.47;2.77;;;5.60;99.90;;;;;;4422975;28;655412;-78
2024/02/04 04:42:15;;;;;;;2.77;1.67;;;5.60;99.90;;;;;;4387527;28;655657;-78
2024/02/04 04:45:03;;;;;;;6.70;2.77;;;5.70;99.90;;;;;;4416203;28;655370;-77
2024/02/04 04:47:50;;;;;;;6.20;3.27;;;5.70;99.90;;;;;;4416185;28;656238;-78
2024/02/04 04:50:37;;;;;;;8.70;2.70;;;5.70;99.90;;;;;;4414482;28;655434;-77
2024/02/04 04:53:25;;;;;;;7.50;3.97;;;5.70;99.90;;;;;;4406210;28;655925;-78
2024/02/04 04:56:14;;;;;;;8.03;3.07;;;5.70;99.90;;;;;;4421756;28;655273;-77
2024/02/04 04:59:01;;;;;;;10.53;3.10;;;5.70;99.90;;;;;;4416023;28;655326;-77
2024/02/04 05:01:48;;;;;;;8.47;3.37;;;5.70;99.90;;;;;;4388264;28;656568;-76
2024/02/04 05:04:35;;;;;;;6.40;3.10;;;5.70;99.90;;;;;;4416908;28;656490;-75
2024/02/04 05:07:22;;;;;;;6.95;3.00;;;5.60;99.90;;;;;;4407832;28;655764;-76
2024/02/04 05:10:10;;;;;;;8.77;3.50;;;5.60;99.90;;;;;;4436022;28;656391;-76
2024/02/04 05:12:59;;;;;;;7.93;3.00;;;5.60;99.90;;;;;;4393789;28;655634;-75
2024/02/04 05:15:46;;;;;;;8.70;3.53;;;5.60;99.90;;;;;;4406182;28;655927;-75
2024/02/04 05:18:33;;;;;;;4.13;2.67;;;5.50;99.90;;;;;;4387233;28;655362;-75
2024/02/04 05:21:20;;;;;;;2.73;1.77;;;5.60;99.90;;;;;;4413049;28;655725;-75
2024/02/04 05:24:08;;;;;;;7.80;3.30;;;5.50;99.90;;;;;;4379588;28;655979;-75
2024/02/04 05:26:55;;;;;;;4.97;2.87;;;5.60;99.90;;;;;;4427638;28;655971;-77
2024/02/04 05:29:44;;;;;;;3.33;1.73;;;5.50;99.90;;;;;;4420001;28;655535;-76
2024/02/04 05:32:32;;;;;;;5.80;3.57;;;5.50;99.90;;;;;;4405436;28;655089;-76
2024/02/04 05:35:19;;;;;;;6.50;2.17;;;5.50;99.90;;;;;;4384433;28;656599;-75
2024/02/04 05:38:06;;;;;;;8.67;3.47;;;5.50;99.90;;;;;;4405658;28;655451;-76
2024/02/04 05:40:53;;;;;;;4.80;2.97;;;5.50;99.90;;;;;;4403364;28;655537;-74
2024/02/04 05:43:40;;;;;;;4.43;2.87;;;5.50;99.90;;;;;;4424548;28;656541;-75
2024/02/04 05:46:29;;;;;;;4.37;2.93;;;5.50;99.90;;;;;;4390516;28;655773;-75
2024/02/04 05:49:16;;;;;;;6.43;3.07;;;5.50;99.90;;;;;;4417056;28;655624;-76
2024/02/04 05:52:04;;;;;;;8.33;3.47;;;5.60;99.90;;;;;;4380561;28;655955;-76
2024/02/04 05:54:51;;;;;;;5.20;2.43;;;5.50;99.90;;;;;;4415379;28;656202;-75
2024/02/04 05:57:38;;;;;;;7.80;3.23;;;5.60;99.90;;;;;;4399673;28;655841;-77
2024/02/04 06:00:26;;;;;;;7.57;3.60;;;5.60;99.90;;;;;;4425645;28;656894;-76
2024/02/04 06:03:14;;;;;;;5.47;3.33;;;5.60;99.90;;;;;;4401921;28;655313;-77
2024/02/04 06:06:02;;;;;;;5.30;3.60;;;5.60;99.90;;;;;;4427389;28;655072;-77
2024/02/04 06:08:49;;;;;;;10.07;4.60;;;5.70;99.90;;;;;;4406079;28;655913;-77
2024/02/04 06:11:36;;;;;;;7.93;4.83;;;5.70;99.90;;;;;;4424937;28;656615;-78
2024/02/04 06:14:23;;;;;;;8.03;5.47;;;5.70;99.90;;;;;;4400319;28;655549;-77
2024/02/04 06:17:10;;;;;;;5.97;4.10;;;5.70;99.90;;;;;;4414972;28;655801;-75
2024/02/04 06:20:00;;;;;;;6.07;4.17;;;5.70;99.90;;;;;;4387361;28;655812;-74
2024/02/04 06:22:47;;;;;;;5.57;4.07;;;5.70;99.90;;;;;;4402264;28;655353;-76
2024/02/04 06:25:35;;;;;;;9.87;5.33;;;5.70;99.90;;;;;;4415452;28;656760;-76
2024/02/04 06:28:22;;;;;;;6.50;4.23;;;5.70;99.90;;;;;;4429707;28;654835;-75
2024/02/04 06:31:10;;;;;;;7.50;4.17;;;5.70;99.90;;;;;;4404148;28;656224;-75
2024/02/04 06:33:57;;;;;;;7.03;4.37;;;5.60;99.90;;;;;;4415900;28;655898;-75
2024/02/04 06:36:45;;;;;;;4.50;2.90;;;5.70;99.90;;;;;;4396371;28;655672;-75
2024/02/04 06:39:32;;;;;;;6.07;3.17;;;5.60;99.90;;;;;;4387599;28;655934;-75
2024/02/04 06:42:20;;;;;;;9.17;4.50;;;5.60;99.90;;;;;;4423863;28;656414;-75
2024/02/04 06:45:08;;;;;;;7.63;4.53;;;5.40;99.90;;;;;;4420340;28;655753;-75
2024/02/04 06:47:55;;;;;;;7.27;5.40;;;5.40;99.90;;;;;;4409050;28;655547;-76
2024/02/04 06:50:45;;;;;;;9.23;6.27;;;5.40;99.90;;;;;;4396024;28;655694;-76
2024/02/04 06:53:34;;;;;;;9.73;5.25;;;5.40;99.90;;;;;;4410915;28;655995;-76
2024/02/04 06:56:21;;;;;;;9.07;6.53;;;5.50;99.90;;;;;;4427462;28;654942;-76
2024/02/04 06:59:08;;;;;;;11.67;5.53;;;5.50;99.90;;;;;;4399343;28;655708;-76
2024/02/04 07:01:55;;;;;;;10.00;5.97;;;5.50;99.90;;;;;;4426576;28;657538;-77
2024/02/04 07:04:43;;;;;;;10.37;5.50;;;5.40;99.90;;;;;;4399129;28;657163;-76
2024/02/04 07:07:30;;;;;;;11.37;6.53;;;5.40;99.90;;;;;;4432035;28;657437;-77
2024/02/04 07:10:19;;;;;;;8.90;5.57;;;5.40;99.90;;;;;;4418242;28;656754;-77
2024/02/04 07:13:08;;;;;;;6.77;4.20;;;5.40;99.90;;;;;;4420478;28;655523;-77
2024/02/04 07:15:55;;;;;;;11.50;4.00;;;5.50;99.90;;;;;;4410085;28;656169;-77
2024/02/04 07:18:42;;;;;;;3.17;2.33;;;5.40;99.90;;;;;;4412020;28;656293;-77
2024/02/04 07:21:30;;;;;;;3.67;2.67;;;5.40;99.90;;;;;;4420851;28;656719;-77
2024/02/04 07:24:18;;;;;;;5.70;3.20;;;5.50;99.90;;;;;;4412780;28;655321;-76
2024/02/04 07:27:07;;;;;;;3.53;1.43;;;5.50;99.90;;;;;;4403909;28;654880;-76
2024/02/04 07:29:54;;;;;;;4.50;2.40;;;5.40;99.90;;;;;;4399983;28;656571;-77
2024/02/04 07:32:42;;;;;;;7.43;2.55;;;5.40;99.90;;;;;;4426398;28;655064;-78
2024/02/04 07:35:29;;;;;;;5.43;2.50;;;5.40;99.90;;;;;;4417585;28;655743;-77
2024/02/04 07:38:16;;;;;;;3.63;1.80;;;5.40;99.90;;;;;;4414685;28;655686;-77
2024/02/04 07:41:03;;;;;;;5.40;1.90;;;5.40;99.90;;;;;;4412866;28;656081;-78
2024/02/04 07:43:52;;;;;;;4.93;2.03;;;5.40;99.90;;;;;;4449883;28;655646;-78
2024/02/04 07:46:39;;;;;;;5.90;1.73;;;5.30;99.90;;;;;;4432209;28;656034;-77
2024/02/04 07:49:26;;;;;;;6.57;1.80;;;5.30;99.90;;;;;;4444157;28;655321;-77
2024/02/04 07:52:13;;;;;;;4.43;1.80;;;5.30;99.90;;;;;;4422043;28;655177;-77
2024/02/04 07:55:00;;;;;;;5.63;1.90;;;5.40;99.90;;;;;;4442118;28;656212;-77
2024/02/04 07:57:48;;;;;;;1.40;0.87;;;5.40;99.90;;;;;;4432777;28;655529;-77
2024/02/04 08:00:36;;;;;;;3.77;1.03;;;5.50;99.90;;;;;;4427981;28;655644;-78
2024/02/04 08:03:23;;;;;;;9.77;1.83;;;5.40;99.90;;;;;;4411926;28;655309;-77
2024/02/04 08:06:11;;;;;;;7.27;1.30;;;5.50;99.90;;;;;;4431755;28;655828;-78
2024/02/04 08:08:58;;;;;;;8.03;1.63;;;5.30;99.90;;;;;;4422541;28;655908;-77
2024/02/04 08:11:45;;;;;;;5.47;1.47;;;5.40;99.90;;;;;;4440084;28;656182;-77
2024/02/04 08:14:32;;;;;;;5.90;1.50;;;5.30;99.90;;;;;;4415424;28;656030;-76
2024/02/04 08:17:21;;;;;;;7.17;1.50;;;5.30;99.90;;;;;;4438834;28;656311;-78
2024/02/04 08:20:09;;;;;;;4.57;1.38;;;5.30;99.90;;;;;;4415622;28;655181;-77
2024/02/04 08:22:56;;;;;;;2.90;0.70;;;5.30;99.90;;;;;;4439483;28;655310;-77
2024/02/04 08:25:43;;;;;;;11.77;2.08;;;5.30;99.90;;;;;;4422223;28;655304;-77
2024/02/04 08:28:31;;;;;;;10.00;1.90;;;5.40;99.90;;;;;;4435143;28;656980;-77
2024/02/04 08:31:18;;;;;;;15.27;1.10;;;5.40;99.90;;;;;;4412734;28;656670;-76
2024/02/04 08:34:07;;;;;;;6.93;1.77;;;5.40;99.90;;;;;;4448963;28;656760;-77
2024/02/04 08:36:54;;;;;;;7.00;1.77;;;5.40;99.90;;;;;;4430795;28;655688;-78
2024/02/04 08:39:42;;;;;;;10.70;2.80;;;5.50;99.90;;;;;;4453399;28;655005;-77
2024/02/04 08:42:29;;;;;;;7.70;2.07;;;5.50;99.90;;;;;;4427105;28;656931;-77
2024/02/04 08:45:16;;;;;;;6.13;2.47;;;5.80;99.90;;;;;;4432393;28;655714;-78
2024/02/04 08:48:03;;;;;;;9.90;3.70;;;5.90;99.90;;;;;;4392620;28;655173;-78
2024/02/04 08:50:54;;;;;;;11.10;3.00;;;6.00;99.90;;;;;;4435465;28;655352;-81
2024/02/04 08:53:41;;;;;;;8.50;3.97;;;6.00;99.90;;;;;;4405511;28;656443;-78
2024/02/04 08:56:28;;;;;;;10.77;4.27;;;6.00;99.90;;;;;;4412596;28;655708;-77
2024/02/04 08:59:15;;;;;;;10.30;4.37;;;5.90;99.90;;;;;;4434868;28;657349;-81
2024/02/04 09:02:02;;;;;;;12.00;3.80;;;5.90;99.90;;;;;;4405708;28;656699;-77
2024/02/04 09:04:50;;;;;;;10.73;3.00;;;5.90;99.90;;;;;;4433665;28;657843;-77
2024/02/04 09:07:38;;;;;;;6.73;2.87;;;5.90;99.90;;;;;;4443424;28;656333;-77
2024/02/04 09:10:26;;;;;;;10.30;2.70;;;5.90;99.90;;;;;;4431119;28;655885;-77
2024/02/04 09:13:13;;;;;;;7.40;2.40;;;5.90;99.90;;;;;;4427976;28;656925;-77
2024/02/04 09:16:00;;;;;;;6.23;2.50;;;5.90;99.90;;;;;;4437346;28;655951;-77
2024/02/04 09:18:47;;;;;;;8.73;2.40;;;6.00;99.90;;;;;;4435537;28;655735;-76
2024/02/04 09:21:35;;;;;;;14.03;2.90;;;6.00;99.90;;;;;;4436481;28;655935;-77
2024/02/04 09:24:23;;;;;;;7.63;2.77;;;6.10;99.90;;;;;;4440143;28;656489;-77
2024/02/04 09:27:10;;;;;;;6.83;2.30;;;6.40;99.90;;;;;;4431671;28;656031;-78
2024/02/04 09:29:58;;;;;;;7.83;1.63;;;6.50;99.90;;;;;;4431721;28;656066;-76
2024/02/04 09:32:46;;;;;;;9.13;2.90;;;6.60;99.90;;;;;;4454008;28;655701;-78
2024/02/04 09:35:33;;;;;;;11.73;2.90;;;7.00;99.90;;;;;;4431484;28;655972;-78
2024/02/04 09:38:21;;;;;;;6.83;2.70;;;7.30;99.90;;;;;;4453032;28;656982;-77
2024/02/04 09:41:10;;;;;;;4.50;1.93;;;7.40;99.90;;;;;;4435177;28;655136;-77
2024/02/04 09:43:57;;;;;;;12.47;3.00;;;7.20;99.90;;;;;;4447416;28;655206;-79
2024/02/04 09:46:45;;;;;;;10.50;3.43;;;7.30;99.90;;;;;;4438107;28;656824;-78
2024/02/04 09:49:32;;;;;;;8.00;3.03;;;7.30;99.90;;;;;;4455836;28;656168;-79
2024/02/04 09:52:20;;;;;;;13.07;3.57;;;7.10;99.90;;;;;;4424931;28;655633;-79
2024/02/04 09:55:08;;;;;;;8.40;2.87;;;6.90;99.90;;;;;;4450069;28;656170;-76
2024/02/04 09:57:56;;;;;;;12.07;3.00;;;6.80;99.90;;;;;;4453931;28;655795;-79
2024/02/04 10:00:45;;;;;;;7.93;2.47;;;6.70;99.90;;;;;;4432076;28;656749;-77
2024/02/04 10:03:32;;;;;;;9.03;2.70;;;6.70;99.90;;;;;;4439338;28;655518;-77
2024/02/04 10:06:19;;;;;;;8.00;2.67;;;6.60;99.90;;;;;;4417795;28;656518;-78
2024/02/04 10:09:06;;;;;;;7.17;2.60;;;6.60;99.90;;;;;;4457217;28;656734;-79
2024/02/04 10:11:53;;;;;;;3.70;1.57;;;6.60;99.90;;;;;;4434488;28;656337;-78
2024/02/04 10:14:42;;;;;;;2.50;1.50;;;6.50;99.90;;;;;;4457384;28;656088;-78
2024/02/04 10:17:29;;;;;;;5.33;2.10;;;6.50;99.90;;;;;;4434995;28;656248;-77
2024/02/04 10:20:16;;;;;;;7.30;2.58;;;6.50;99.90;;;;;;4454884;28;655535;-79
2024/02/04 10:23:04;;;;;;;7.17;2.83;;;6.60;99.90;;;;;;4432891;28;655939;-79
2024/02/04 10:25:59;;;;;;;9.93;2.23;;;6.60;99.90;;;;;;4456116;28;655842;-80
2024/02/04 10:28:47;;;;;;;8.17;2.67;;;6.70;99.90;;;;;;4428787;28;655618;-79
2024/02/04 10:31:36;;;;;;;6.20;2.43;;;6.80;99.90;;;;;;4410231;28;656699;-77
2024/02/04 10:34:23;;;;;;;10.57;2.60;;;7.00;99.90;;;;;;4416047;28;655374;-76
2024/02/04 10:37:10;;;;;;;8.33;2.60;;;7.10;99.90;;;;;;4432965;28;657472;-78
2024/02/04 10:39:58;;;;;;;16.07;1.77;;;7.00;99.90;;;;;;4398397;28;655438;-77
2024/02/04 10:42:45;;;;;;;8.17;2.30;;;7.20;99.90;;;;;;4444313;28;657393;-79
2024/02/04 10:45:34;;;;;;;1.77;1.00;;;7.20;99.90;;;;;;4441554;28;656020;-77
2024/02/04 10:48:22;;;;;;;5.40;2.00;;;7.40;99.90;;;;;;4453498;28;655745;-79
2024/02/04 10:51:12;;;;;;;9.97;2.07;;;7.70;99.90;;;;;;4425369;28;656288;-80
2024/02/04 10:54:00;;;;;;;9.17;2.13;;;7.70;99.90;;;;;;4417377;28;656211;-81
2024/02/04 10:56:47;;;;;;;4.87;1.90;;;7.70;99.90;;;;;;4457204;28;654626;-80
2024/02/04 10:59:34;;;;;;;7.13;2.10;;;8.10;99.90;;;;;;4430258;28;656690;-80
2024/02/04 11:02:21;;;;;;;5.73;2.20;;;8.20;99.90;;;;;;4454689;28;655815;-79
2024/02/04 11:05:10;;;;;;;7.82;2.30;;;8.10;99.90;;;;;;4433946;28;655780;-81
2024/02/04 11:07:57;;;;;;;4.83;2.03;;;7.90;99.90;;;;;;4439464;28;655507;-78
2024/02/04 11:10:45;;;;;;;7.07;2.20;;;7.90;99.90;;;;;;4450779;28;657010;-81
2024/02/04 11:13:32;;;;;;;6.60;2.20;;;7.90;99.90;;;;;;4426680;28;654623;-81
2024/02/04 11:16:23;;;;;;;4.90;2.00;;;7.80;99.90;;;;;;4420991;28;656178;-80
2024/02/04 11:19:16;;;;;;;5.77;2.10;;;7.90;99.90;;;;;;4410946;28;656349;-80
2024/02/04 11:22:18;;;;;;;11.32;3.10;;;8.20;99.90;;;;;;4388710;28;656397;-82
2024/02/04 11:25:27;;;;;;;9.63;2.10;;;8.40;99.90;;;;;;4423167;28;657344;-82
2024/02/04 11:28:14;;;;;;;10.20;2.00;;;8.60;99.90;;;;;;4430193;28;656417;-81
2024/02/04 11:31:01;;;;;;;8.43;2.30;;;8.40;99.90;;;;;;4454442;28;656599;-81
2024/02/04 11:33:51;;;;;;;14.43;3.27;;;8.20;99.90;;;;;;4433537;28;655994;-81
2024/02/04 11:36:39;;;;;;;9.83;2.63;;;8.00;99.90;;;;;;4431831;28;656682;-81
2024/02/04 11:39:28;;;;;;;3.10;1.70;;;8.00;99.90;;;;;;4454422;28;655215;-81
2024/02/04 11:42:15;;;;;;;11.07;2.80;;;8.30;99.90;;;;;;4413767;28;656393;-81
2024/02/04 11:45:08;;;;;;;11.35;3.10;;;8.30;99.90;;;;;;4419718;28;656738;-79
2024/02/04 11:48:01;;;;;;;9.90;3.23;;;8.10;99.90;;;;;;4431221;28;656895;-81
2024/02/04 11:50:53;;;;;;;8.90;3.20;;;8.10;99.90;;;;;;4412502;28;655299;-81
2024/02/04 11:53:40;;;;;;;7.73;2.93;;;7.90;99.90;;;;;;4418477;28;656411;-81
2024/02/04 11:56:29;;;;;;;10.17;2.87;;;7.80;99.90;;;;;;4414558;28;656370;-80
2024/02/04 11:59:17;;;;;;;7.53;3.27;;;7.70;99.90;;;;;;4435260;28;656215;-81
2024/02/04 12:02:06;;;;;;;5.80;3.20;;;7.50;99.90;;;;;;4412517;28;655844;-80
2024/02/04 12:04:54;;;;;;;6.50;1.67;;;7.40;99.90;;;;;;4405460;28;655587;-80
2024/02/04 12:07:41;;;;;;;9.10;3.77;;;7.30;99.90;;;;;;4432699;28;656198;-76
2024/02/04 12:10:29;;;;;;;8.60;2.77;;;7.30;99.90;;;;;;4425529;28;655633;-75
2024/02/04 12:13:18;;;;;;;11.68;4.15;;;7.20;99.90;;;;;;4450294;28;655677;-77
2024/02/04 12:16:08;;;;;;;9.47;4.40;;;7.00;99.90;;;;;;4426303;28;656744;-76
2024/02/04 12:18:55;;;;;;;13.70;4.77;;;6.90;99.90;;;;;;4427186;28;655697;-76
2024/02/04 12:21:43;;;;;;;7.73;4.17;;;6.90;99.90;;;;;;4439090;28;657021;-74
2024/02/04 12:24:30;;;;;;;11.47;4.80;;;6.80;99.90;;;;;;4453357;28;656510;-74
2024/02/04 12:27:18;;;;;;;11.47;5.13;;;6.60;99.90;;;;;;4443825;28;656813;-74
2024/02/04 12:30:07;;;;;;;14.50;5.63;;;6.40;99.90;;;;;;4442492;28;658187;-74
2024/02/04 12:32:58;;;;;;;14.20;6.57;;;6.30;99.90;;;;;;4426940;28;657790;-74
2024/02/04 12:35:50;;;;;;;14.13;7.27;;;6.10;99.90;;;;;;4429329;28;657570;-74
2024/02/04 12:38:37;;;;;;;14.67;7.70;;;6.10;99.90;;;;;;4428884;28;656738;-74
2024/02/04 12:41:25;;;;;;;15.13;7.03;;;6.00;99.90;;;;;;4421517;28;656995;-74
2024/02/04 12:44:12;;;;;;;22.23;9.00;;;6.10;99.90;;;;;;4438149;28;656381;-75
2024/02/04 12:47:02;;;;;;;18.87;9.87;;;6.10;99.90;;;;;;4453512;28;657157;-74
2024/02/04 12:49:49;;;;;;;18.30;9.90;;;6.00;99.90;;;;;;4429896;28;657502;-75
2024/02/04 12:52:39;;;;;;;18.53;9.23;;;6.00;99.90;;;;;;4452960;28;656274;-74
2024/02/04 12:55:28;;;;;;;15.68;8.77;;;6.00;99.90;;;;;;4426720;28;656700;-74
2024/02/04 12:58:17;;;;;;;15.17;9.40;;;6.00;99.90;;;;;;4408679;28;656723;-73
2024/02/04 13:01:04;;;;;;;15.87;8.50;;;6.00;99.90;;;;;;4407991;28;657491;-74
2024/02/04 13:03:56;;;;;;;18.60;9.43;;;6.10;99.90;;;;;;4431039;28;656251;-74
2024/02/04 13:06:43;;;;;;;11.03;6.87;;;6.10;99.90;;;;;;4392991;28;656983;-74
2024/02/04 13:09:30;;;;;;;10.63;5.20;;;6.20;99.90;;;;;;4452582;28;656615;-74
2024/02/04 13:12:17;;;;;;;18.03;9.80;;;6.20;99.90;;;;;;4432173;28;656664;-74
2024/02/04 13:15:06;;;;;;;18.37;10.47;;;6.10;99.90;;;;;;4453352;28;656756;-74
2024/02/04 13:17:54;;;;;;;18.80;9.80;;;6.20;99.90;;;;;;4426884;28;657363;-74
2024/02/04 13:20:43;;;;;;;15.60;8.93;;;6.20;99.90;;;;;;4449133;28;656554;-74
2024/02/04 13:23:30;;;;;;;18.07;8.87;;;6.20;99.90;;;;;;4426421;28;657209;-74
2024/02/04 13:26:17;;;;;;;15.60;8.57;;;6.20;99.90;;;;;;4434110;28;656446;-75
2024/02/04 13:29:05;;;;;;;16.53;9.23;;;6.20;99.90;;;;;;4451856;28;657025;-75
2024/02/04 13:31:52;;;;;;;15.53;9.27;;;6.20;99.90;;;;;;4430801;28;656983;-74
2024/02/04 13:34:39;;;;;;;16.27;8.73;;;6.30;99.90;;;;;;4429152;28;656439;-74
2024/02/04 13:37:27;;;;;;;16.60;8.77;;;6.20;99.90;;;;;;4447740;28;656755;-74
2024/02/04 13:40:15;;;;;;;16.40;9.40;;;6.20;99.90;;;;;;4424827;28;657285;-74
2024/02/04 13:43:02;;;;;;;14.13;7.07;;;6.30;99.90;;;;;;4443779;28;657236;-74
2024/02/04 13:45:50;;;;;;;17.13;9.10;;;6.40;99.90;;;;;;4434337;28;657843;-74
2024/02/04 13:48:37;;;;;;;16.43;9.23;;;6.40;99.90;;;;;;4430530;28;656991;-73
2024/02/04 13:51:24;;;;;;;9.70;5.17;;;6.30;99.90;;;;;;4409013;28;657775;-74
2024/02/04 13:54:15;;;;;;;13.33;6.60;;;6.30;99.90;;;;;;4447018;28;655751;-73
2024/02/04 13:57:02;;;;;;;17.87;9.10;;;6.40;99.90;;;;;;4445565;28;656534;-74
2024/02/04 13:59:50;;;;;;;10.67;5.27;;;6.30;99.90;;;;;;4453507;28;656927;-73
2024/02/04 14:02:38;;;;;;;15.80;8.80;;;6.40;99.90;;;;;;4445393;28;656415;-74
2024/02/04 14:05:26;;;;;;;14.97;8.17;;;6.40;99.90;;;;;;4452881;28;657050;-73
2024/02/04 14:08:13;;;;;;;11.67;6.47;;;6.40;99.90;;;;;;4430271;28;657006;-74
2024/02/04 14:11:01;;;;;;;18.73;9.90;;;6.50;99.90;;;;;;4448059;28;657743;-74
2024/02/04 14:13:49;;;;;;;14.47;9.07;;;6.50;99.90;;;;;;4423915;28;656714;-74
2024/02/04 14:16:36;;;;;;;18.43;10.07;;;6.40;99.90;;;;;;4449746;28;656459;-73
2024/02/04 14:19:23;;;;;;;16.47;9.20;;;6.40;99.90;;;;;;4428696;28;657256;-74
2024/02/04 14:22:10;;;;;;;20.27;7.13;;;6.40;99.90;;;;;;4454329;28;656587;-74
2024/02/04 14:24:59;;;;;;;14.30;7.95;;;6.50;99.90;;;;;;4437294;28;657005;-74
2024/02/04 14:27:48;;;;;;;14.03;8.53;;;6.50;99.90;;;;;;4455780;28;657261;-75